Time;durP1;ratioP1;P1;durP2;ratioP2;P2;SDS_P1;SDS_P2;PMS_P1;PMS_P2;Temp;Humidity;BMP_temperature;BMP_pressure;BME280_temperature;BME280_humidity;BME280_pressure;Samples;Min_cycle;Max_cycle;Signal;HPM_P1;HPM_P2
2024/01/25 00:00:08;;;;;;;5.53;1.17;;;;;;;10.65;81.84;100649.72;334464;28;18044;-77
2024/01/25 00:00:21;;;;;;;6.40;1.17;;;;;;;10.64;82.06;100655.78;337269;28;4514;-77
2024/01/25 00:00:33;;;;;;;6.00;1.13;;;;;;;10.64;82.13;100650.59;333081;28;18389;-77
2024/01/25 00:00:45;;;;;;;6.57;1.17;;;;;;;10.66;82.07;100651.44;331664;28;5263;-77
2024/01/25 00:00:57;;;;;;;2.78;0.93;;;;;;;10.68;82.35;100649.66;331601;29;9372;-77
2024/01/25 00:01:12;;;;;;;3.83;1.20;;;;;;;10.52;82.25;100646.44;332768;28;9008;-77
2024/01/25 00:01:24;;;;;;;4.97;1.30;;;;;;;10.51;82.70;100649.94;335891;28;4557;-78
2024/01/25 00:01:39;;;;;;;4.68;1.45;;;;;;;10.51;82.77;100649.94;333956;28;12897;-77
2024/01/25 00:01:51;;;;;;;3.55;1.40;;;;;;;10.44;82.85;100661.31;336097;28;5330;-77
2024/01/25 00:02:03;;;;;;;3.92;1.20;;;;;;;10.48;82.80;100655.19;329274;28;18047;-77
2024/01/25 00:02:16;;;;;;;5.63;1.40;;;;;;;10.51;82.70;100657.75;337102;28;4596;-77
2024/01/25 00:02:28;;;;;;;6.75;1.27;;;;;;;10.56;82.75;100656.78;330129;28;18168;-77
2024/01/25 00:02:40;;;;;;;5.78;1.17;;;;;;;10.58;82.46;100654.16;335026;29;4815;-77
2024/01/25 00:02:51;;;;;;;2.58;1.02;;;;;;;10.55;82.80;100654.22;332574;29;5447;-77
2024/01/25 00:03:04;;;;;;;3.97;1.10;;;;;;;10.58;82.60;100659.34;335012;29;4559;-77
2024/01/25 00:03:16;;;;;;;4.93;1.30;;;;;;;10.60;82.50;100657.56;335498;28;4892;-77
2024/01/25 00:03:28;;;;;;;5.28;1.30;;;;;;;10.55;82.81;100655.06;332760;28;18199;-77
2024/01/25 00:03:40;;;;;;;4.07;1.00;;;;;;;10.53;82.86;100648.19;331724;28;4481;-77
2024/01/25 00:03:53;;;;;;;3.85;1.05;;;;;;;10.49;82.84;100656.91;333789;28;13710;-77
2024/01/25 00:04:05;;;;;;;6.35;1.35;;;;;;;10.45;82.60;100658.69;336000;28;5211;-78
2024/01/25 00:04:17;;;;;;;7.93;1.42;;;;;;;10.52;82.62;100664.66;336011;28;4685;-77
2024/01/25 00:04:29;;;;;;;6.70;1.13;;;;;;;10.58;82.46;100654.16;333851;28;17905;-77
2024/01/25 00:04:42;;;;;;;3.05;1.00;;;;;;;10.60;82.76;100652.38;336462;28;4521;-77
2024/01/25 00:04:54;;;;;;;3.42;1.10;;;;;;;10.61;82.62;100648.91;334483;28;18227;-77
2024/01/25 00:05:06;;;;;;;5.68;1.10;;;;;;;10.56;82.20;100650.72;332566;28;4610;-77
2024/01/25 00:05:19;;;;;;;6.53;1.02;;;;;;;10.61;82.26;100648.06;331741;28;16547;-77
2024/01/25 00:05:31;;;;;;;2.70;0.90;;;;;;;10.61;82.66;100654.09;334846;28;4525;-77
2024/01/25 00:05:43;;;;;;;1.92;0.90;;;;;;;10.58;82.73;100654.16;332292;29;16079;-77
2024/01/25 00:05:55;;;;;;;2.17;0.90;;;;;;;10.56;82.85;100646.41;334855;29;5506;-77
2024/01/25 00:06:08;;;;;;;4.82;0.95;;;;;;;10.54;82.50;100653.38;333081;28;8878;-77
2024/01/25 00:06:20;;;;;;;7.00;1.13;;;;;;;10.56;82.85;100653.31;331837;29;17178;-77
2024/01/25 00:06:33;;;;;;;5.65;0.93;;;;;;;10.52;82.76;100664.66;332246;29;4891;-77
2024/01/25 00:06:45;;;;;;;3.90;0.70;;;;;;;10.58;82.84;100651.53;330659;29;5579;-77
2024/01/25 00:06:57;;;;;;;6.50;0.85;;;;;;;10.64;82.20;100648.84;334385;29;4517;-77
2024/01/25 00:07:09;;;;;;;5.80;1.10;;;;;;;10.64;82.33;100654.03;332747;28;16348;-77
2024/01/25 00:07:22;;;;;;;6.35;1.10;;;;;;;10.54;82.52;100648.16;336393;28;4896;-77
2024/01/25 00:07:34;;;;;;;6.55;1.13;;;;;;;10.58;82.90;100649.81;333427;28;13088;-77
2024/01/25 00:07:50;;;;;;;6.25;1.13;;;;;;;10.59;82.88;100656.72;336369;28;4930;-77
2024/01/25 00:08:03;;;;;;;7.18;1.23;;;;;;;10.58;82.42;100644.63;329400;28;17631;-78
2024/01/25 00:08:15;;;;;;;6.03;1.05;;;;;;;10.63;82.66;100657.53;333764;28;18170;-77
2024/01/25 00:08:27;;;;;;;6.20;1.20;;;;;;;10.65;82.59;100650.56;336314;28;4976;-77
2024/01/25 00:08:39;;;;;;;5.80;1.00;;;;;;;10.68;82.15;100653.09;333272;28;12682;-77
2024/01/25 00:08:51;;;;;;;3.05;0.98;;;;;;;10.70;82.13;100653.94;335812;28;5411;-77
2024/01/25 00:09:04;;;;;;;5.47;1.15;;;;;;;10.73;82.18;100653.91;338164;28;5304;-77
2024/01/25 00:09:18;;;;;;;6.80;1.20;;;;;;;10.63;82.07;100657.53;337093;28;17863;-77
2024/01/25 00:09:30;;;;;;;7.60;1.38;;;;;;;10.64;82.26;100659.25;334756;28;18259;-77
2024/01/25 00:09:42;;;;;;;7.72;1.65;;;;;;;10.66;82.04;100662.69;336423;28;5214;-77
2024/01/25 00:09:55;;;;;;;6.68;1.65;;;;;;;10.67;82.16;100656.59;334818;28;13476;-77
2024/01/25 00:10:07;;;;;;;5.55;1.25;;;;;;;10.66;82.04;100657.47;337669;28;4517;-77
2024/01/25 00:10:19;;;;;;;4.47;1.13;;;;;;;10.58;82.35;100661.94;334682;28;18048;-77
2024/01/25 00:10:31;;;;;;;3.67;1.08;;;;;;;10.60;82.41;100662.78;337004;28;5572;-77
2024/01/25 00:10:43;;;;;;;2.42;0.70;;;;;;;10.59;82.65;100658.47;335736;28;4719;-77
2024/01/25 00:10:55;;;;;;;2.95;0.77;;;;;;;10.61;82.74;100654.09;333540;28;19529;-77
2024/01/25 00:11:09;;;;;;;2.13;0.68;;;;;;;10.58;82.60;100660.22;335967;28;5299;-77
2024/01/25 00:11:21;;;;;;;1.80;0.80;;;;;;;10.63;82.91;100657.53;333807;28;16541;-77
2024/01/25 00:11:33;;;;;;;4.30;0.90;;;;;;;10.61;82.12;100656.72;336872;28;4490;-77
2024/01/25 00:11:45;;;;;;;5.20;1.00;;;;;;;10.58;82.49;100659.34;334812;28;18188;-77
2024/01/25 00:11:57;;;;;;;6.30;1.20;;;;;;;10.61;82.50;100659.31;337215;28;4551;-77
2024/01/25 00:12:09;;;;;;;6.00;1.20;;;;;;;10.59;82.44;100655.88;337685;28;4618;-77
2024/01/25 00:12:21;;;;;;;4.93;1.48;;;;;;;10.59;82.42;100653.28;334267;28;17741;-77
2024/01/25 00:12:33;;;;;;;4.63;1.60;;;;;;;10.59;82.31;100658.47;337401;28;5531;-77
2024/01/25 00:12:45;;;;;;;5.13;1.58;;;;;;;10.65;82.52;100658.38;332566;28;17907;-77
2024/01/25 00:12:57;;;;;;;5.63;1.38;;;;;;;10.68;82.25;100660.91;336033;28;4695;-77
2024/01/25 00:13:09;;;;;;;4.10;1.15;;;;;;;10.67;82.12;100653.16;334929;28;5470;-76
2024/01/25 00:13:22;;;;;;;3.92;1.27;;;;;;;10.64;82.42;100659.25;338285;28;18942;-77
2024/01/25 00:13:34;;;;;;;2.45;1.25;;;;;;;10.65;82.11;100660.13;338494;28;4702;-76
2024/01/25 00:13:46;;;;;;;5.30;1.35;;;;;;;10.62;82.28;100661.00;335407;28;12919;-77
2024/01/25 00:13:58;;;;;;;8.80;1.52;;;;;;;10.71;82.15;100663.47;335806;28;17227;-77
2024/01/25 00:14:10;;;;;;;8.30;2.00;;;;;;;10.68;82.14;100666.09;337045;28;5391;-77
2024/01/25 00:14:22;;;;;;;7.05;2.00;;;;;;;10.67;82.25;100661.81;333413;28;18007;-76
2024/01/25 00:14:34;;;;;;;6.60;1.75;;;;;;;10.70;82.11;100663.50;336303;28;4562;-76
2024/01/25 00:14:46;;;;;;;8.23;1.70;;;;;;;10.72;82.10;100661.72;334687;28;17249;-77
2024/01/25 00:14:58;;;;;;;7.32;1.80;;;;;;;10.70;82.16;100664.34;336177;29;4640;-77
2024/01/25 00:15:10;;;;;;;7.22;1.85;;;;;;;10.70;81.94;100663.50;331420;28;4891;-77
2024/01/25 00:15:22;;;;;;;4.95;1.70;;;;;;;10.70;82.12;100664.34;333006;28;17844;-76
2024/01/25 00:15:34;;;;;;;4.43;1.33;;;;;;;10.67;82.32;100660.97;335748;28;4588;-77
2024/01/25 00:15:46;;;;;;;4.43;1.25;;;;;;;10.69;81.92;100673.03;332450;29;18810;-76
2024/01/25 00:15:58;;;;;;;2.78;0.88;;;;;;;10.66;82.53;100657.47;335256;29;4682;-76
2024/01/25 00:16:10;;;;;;;2.78;1.08;;;;;;;10.65;82.22;100660.97;333892;28;4734;-76
2024/01/25 00:16:23;;;;;;;3.72;1.13;;;;;;;10.68;81.94;100660.91;335892;28;4563;-76
2024/01/25 00:16:35;;;;;;;5.22;1.23;;;;;;;10.68;81.88;100653.09;336443;28;4717;-77
2024/01/25 00:16:47;;;;;;;8.75;1.55;;;;;;;10.77;81.84;100663.38;329855;28;12404;-76
2024/01/25 00:16:59;;;;;;;9.65;1.60;;;;;;;10.77;81.67;100670.31;337488;28;4672;-77
2024/01/25 00:17:11;;;;;;;6.20;1.00;;;;;;;10.78;81.66;100672.91;337681;28;4716;-77
2024/01/25 00:17:23;;;;;;;5.18;0.90;;;;;;;10.73;81.69;100663.44;335657;28;18282;-77
2024/01/25 00:17:36;;;;;;;4.55;1.00;;;;;;;10.73;82.09;100666.91;337724;28;6094;-77
2024/01/25 00:17:49;;;;;;;5.50;1.10;;;;;;;10.79;81.75;100663.34;336285;28;17938;-77
2024/01/25 00:18:01;;;;;;;5.30;1.10;;;;;;;10.72;81.85;100670.38;338218;28;5431;-77
2024/01/25 00:18:13;;;;;;;5.53;1.00;;;;;;;10.72;81.92;100672.13;335747;28;18742;-77
2024/01/25 00:18:26;;;;;;;6.68;1.00;;;;;;;10.75;81.48;100672.94;338063;28;4532;-76
2024/01/25 00:18:38;;;;;;;5.85;1.20;;;;;;;10.76;81.58;100674.63;334855;28;13393;-76
2024/01/25 00:18:51;;;;;;;7.00;1.20;;;;;;;10.77;81.59;100671.16;337537;28;4549;-77
2024/01/25 00:19:03;;;;;;;5.13;0.73;;;;;;;10.79;81.76;100664.19;334285;28;18101;-77
2024/01/25 00:19:15;;;;;;;5.00;0.90;;;;;;;10.75;81.32;100665.13;337217;28;4990;-76
2024/01/25 00:19:27;;;;;;;4.90;1.20;;;;;;;10.67;81.82;100669.59;336556;28;18168;-77
2024/01/25 00:19:41;;;;;;;5.88;1.20;;;;;;;10.72;81.79;100665.16;330050;28;18328;-77
2024/01/25 00:19:53;;;;;;;4.80;1.00;;;;;;;10.70;82.04;100663.50;335107;28;13474;-76
2024/01/25 00:20:05;;;;;;;4.25;0.95;;;;;;;10.65;81.95;100666.19;337670;28;5527;-76
2024/01/25 00:20:18;;;;;;;5.78;1.15;;;;;;;10.63;82.18;100667.94;334849;28;12950;-77
2024/01/25 00:20:30;;;;;;;5.80;1.35;;;;;;;10.59;82.60;100666.28;336119;28;5427;-77
2024/01/25 00:20:42;;;;;;;4.28;1.33;;;;;;;10.62;82.26;100661.00;336634;28;4554;-77
2024/01/25 00:20:55;;;;;;;4.93;1.60;;;;;;;10.62;82.35;100660.16;334141;28;17923;-77
2024/01/25 00:21:07;;;;;;;5.55;1.38;;;;;;;10.68;82.28;100660.91;332285;28;4554;-77
2024/01/25 00:21:19;;;;;;;6.85;1.35;;;;;;;10.70;82.26;100661.75;334786;28;18358;-77
2024/01/25 00:21:31;;;;;;;7.28;1.00;;;;;;;10.78;81.81;100662.50;337558;28;4539;-77
2024/01/25 00:21:44;;;;;;;7.53;1.30;;;;;;;10.75;81.85;100667.72;335176;28;4603;-77
2024/01/25 00:21:56;;;;;;;6.38;1.40;;;;;;;10.75;81.73;100665.13;337352;28;4712;-77
2024/01/25 00:22:08;;;;;;;4.70;1.27;;;;;;;10.77;81.55;100660.75;333375;28;7930;-76
2024/01/25 00:22:20;;;;;;;3.55;0.90;;;;;;;10.73;81.70;100664.31;336164;28;4604;-77
2024/01/25 00:22:32;;;;;;;3.72;0.90;;;;;;;10.67;82.05;100661.81;336608;28;4582;-77
2024/01/25 00:22:45;;;;;;;3.65;0.85;;;;;;;10.62;82.36;100661.00;335678;28;17984;-76
2024/01/25 00:22:57;;;;;;;8.45;1.00;;;;;;;10.61;82.37;100659.31;338798;28;4722;-77
2024/01/25 00:23:09;;;;;;;8.07;1.08;;;;;;;10.65;82.25;100650.56;335844;28;18265;-77
2024/01/25 00:23:21;;;;;;;6.55;1.08;;;;;;;10.63;82.36;100657.53;338780;28;4589;-76
2024/01/25 00:23:33;;;;;;;4.82;1.10;;;;;;;10.58;82.24;100657.63;335484;28;14492;-77
2024/01/25 00:23:45;;;;;;;6.20;1.30;;;;;;;10.64;82.49;100659.25;337714;28;4531;-77
2024/01/25 00:23:57;;;;;;;6.78;1.20;;;;;;;10.62;82.33;100645.41;333432;28;4558;-76
2024/01/25 00:24:12;;;;;;;5.43;1.20;;;;;;;10.55;82.68;100664.63;334560;28;10070;-77
2024/01/25 00:24:25;;;;;;;3.47;1.17;;;;;;;10.54;82.78;100648.16;335384;28;12039;-77
2024/01/25 00:24:38;;;;;;;3.50;1.15;;;;;;;10.59;82.86;100650.69;338766;28;4583;-77
2024/01/25 00:24:50;;;;;;;5.43;1.00;;;;;;;10.62;82.78;100660.16;335966;28;12729;-77
2024/01/25 00:25:02;;;;;;;7.07;1.10;;;;;;;10.54;82.59;100657.69;338552;28;4681;-77
2024/01/25 00:25:14;;;;;;;7.32;1.02;;;;;;;10.53;82.53;100646.44;334915;28;16954;-77
2024/01/25 00:25:26;;;;;;;6.65;1.05;;;;;;;10.56;82.72;100655.91;335066;28;17985;-77
2024/01/25 00:25:38;;;;;;;5.03;1.17;;;;;;;10.64;82.58;100654.03;335402;28;7541;-76
2024/01/25 00:25:50;;;;;;;4.80;1.17;;;;;;;10.59;82.79;100658.47;336736;28;16983;-76
2024/01/25 00:26:03;;;;;;;5.28;1.30;;;;;;;10.55;83.05;100644.66;337802;28;5459;-76
2024/01/25 00:26:15;;;;;;;4.20;1.23;;;;;;;10.62;82.81;100655.81;334103;28;18104;-77
2024/01/25 00:26:27;;;;;;;3.72;0.95;;;;;;;10.64;82.56;100651.44;337730;28;4697;-77
2024/01/25 00:26:39;;;;;;;4.97;1.02;;;;;;;10.56;82.62;100650.72;337194;28;12980;-76
2024/01/25 00:26:51;;;;;;;7.00;1.02;;;;;;;10.56;82.95;100650.72;330928;28;17956;-76
2024/01/25 00:27:03;;;;;;;5.68;0.95;;;;;;;10.61;82.80;100651.50;339102;28;5606;-76
2024/01/25 00:27:15;;;;;;;5.60;1.38;;;;;;;10.60;82.54;100649.78;329784;28;17663;-77
2024/01/25 00:27:27;;;;;;;5.40;1.33;;;;;;;10.57;82.73;100652.44;337195;28;4506;-76
2024/01/25 00:27:39;;;;;;;5.53;1.02;;;;;;;10.62;82.56;100648.00;337607;28;5309;-76
2024/01/25 00:27:52;;;;;;;3.58;0.80;;;;;;;10.61;82.70;100628.09;336446;28;19698;-76
2024/01/25 00:28:05;;;;;;;2.33;0.80;;;;;;;10.74;82.42;100644.34;336716;28;4741;-76
2024/01/25 00:28:17;;;;;;;2.85;0.90;;;;;;;10.74;81.87;100650.41;332352;28;17950;-76
2024/01/25 00:28:29;;;;;;;4.57;1.20;;;;;;;10.77;81.88;100652.97;337539;28;4570;-76
2024/01/25 00:28:41;;;;;;;7.30;1.63;;;;;;;10.71;81.76;100653.06;335610;28;18365;-76
2024/01/25 00:28:53;;;;;;;6.90;1.52;;;;;;;10.65;81.99;100645.38;338361;28;4512;-76
2024/01/25 00:29:05;;;;;;;7.50;1.25;;;;;;;10.59;82.25;100650.69;335973;28;16546;-76
2024/01/25 00:29:17;;;;;;;6.28;1.30;;;;;;;10.58;82.76;100659.34;338256;28;4891;-76
2024/01/25 00:29:30;;;;;;;7.03;1.40;;;;;;;10.64;82.68;100651.44;337570;28;5319;-76
2024/01/25 00:29:43;;;;;;;6.90;1.13;;;;;;;10.62;82.55;100654.97;332061;28;18094;-76
2024/01/25 00:29:55;;;;;;;5.47;1.25;;;;;;;10.60;82.66;100639.38;332947;28;18184;-77
2024/01/25 00:30:08;;;;;;;5.13;1.35;;;;;;;10.65;82.41;100649.72;335626;28;4944;-76
2024/01/25 00:30:20;;;;;;;5.15;1.52;;;;;;;10.69;82.55;100652.25;332969;28;13007;-76
2024/01/25 00:30:32;;;;;;;6.13;1.67;;;;;;;10.70;82.61;100640.94;335808;28;5124;-76
2024/01/25 00:30:44;;;;;;;5.20;1.50;;;;;;;10.75;81.94;100646.06;338047;28;4615;-76
2024/01/25 00:30:56;;;;;;;5.05;1.13;;;;;;;10.68;81.96;100653.09;334293;28;18151;-76
2024/01/25 00:31:08;;;;;;;6.15;1.20;;;;;;;10.61;82.48;100648.91;331160;28;5781;-76
2024/01/25 00:31:20;;;;;;;7.38;1.50;;;;;;;10.72;82.25;100644.38;334782;28;5381;-76
2024/01/25 00:31:32;;;;;;;6.28;1.60;;;;;;;10.68;82.41;100650.50;330812;28;18741;-76
2024/01/25 00:31:44;;;;;;;6.55;1.63;;;;;;;10.64;81.90;100654.03;334247;29;4665;-76
2024/01/25 00:31:57;;;;;;;7.32;1.05;;;;;;;10.61;82.56;100648.06;332284;29;17990;-76
2024/01/25 00:32:09;;;;;;;7.43;1.30;;;;;;;10.82;82.31;100649.41;336119;28;4532;-76
2024/01/25 00:32:21;;;;;;;8.50;1.40;;;;;;;10.70;81.98;100642.69;334411;28;5207;-76
2024/01/25 00:32:33;;;;;;;6.75;1.27;;;;;;;10.61;82.41;100648.91;331838;28;4557;-77
2024/01/25 00:32:45;;;;;;;6.60;1.15;;;;;;;10.60;82.25;100647.19;334298;29;4909;-76
2024/01/25 00:32:58;;;;;;;3.58;1.02;;;;;;;10.58;82.63;100648.94;333103;28;17391;-76
2024/01/25 00:33:10;;;;;;;4.30;1.20;;;;;;;10.84;82.65;100645.06;336195;28;4743;-76
2024/01/25 00:33:22;;;;;;;5.47;1.40;;;;;;;10.72;82.19;100644.38;333450;28;17707;-77
2024/01/25 00:33:34;;;;;;;5.55;1.23;;;;;;;10.72;82.30;100646.97;335978;28;4591;-76
2024/01/25 00:33:47;;;;;;;8.75;1.40;;;;;;;10.79;82.02;100648.59;332191;28;5343;-76
2024/01/25 00:34:00;;;;;;;7.97;1.30;;;;;;;10.77;82.10;100645.16;333877;29;4579;-76
2024/01/25 00:34:13;;;;;;;7.63;1.55;;;;;;;10.70;82.09;100638.34;330783;28;18075;-76
2024/01/25 00:34:25;;;;;;;7.15;1.65;;;;;;;10.73;82.18;100643.50;333870;29;4623;-76
2024/01/25 00:34:38;;;;;;;6.25;1.30;;;;;;;10.74;82.01;100644.34;331249;28;17998;-76
2024/01/25 00:34:50;;;;;;;5.65;1.10;;;;;;;10.74;82.28;100640.00;334660;28;5527;-76
2024/01/25 00:35:03;;;;;;;4.22;1.27;;;;;;;10.78;81.84;100636.50;331947;28;17918;-76
2024/01/25 00:35:15;;;;;;;5.85;1.35;;;;;;;10.76;82.19;100637.38;333598;29;4572;-76
2024/01/25 00:35:28;;;;;;;7.80;1.35;;;;;;;10.75;82.05;100641.72;326538;29;18102;-76
2024/01/25 00:35:40;;;;;;;8.48;1.27;;;;;;;10.74;81.84;100645.19;333370;29;5967;-76
2024/01/25 00:35:53;;;;;;;7.05;1.23;;;;;;;10.75;81.74;100639.13;334231;28;18787;-76
2024/01/25 00:36:05;;;;;;;5.47;1.30;;;;;;;10.72;82.23;100649.56;337483;28;4560;-76
2024/01/25 00:36:18;;;;;;;3.93;1.40;;;;;;;10.64;82.71;100659.25;334628;28;18090;-77
2024/01/25 00:36:30;;;;;;;4.05;1.52;;;;;;;10.64;82.52;100646.25;337467;28;4593;-76
2024/01/25 00:36:42;;;;;;;4.35;1.60;;;;;;;10.64;82.07;100629.78;333894;28;16279;-76
2024/01/25 00:36:54;;;;;;;4.30;1.48;;;;;;;10.60;82.88;100647.19;335087;28;17174;-76
2024/01/25 00:37:07;;;;;;;3.45;1.27;;;;;;;10.63;83.02;100635.91;330506;28;4811;-76
2024/01/25 00:37:19;;;;;;;3.92;1.23;;;;;;;10.63;82.75;100636.75;338345;28;4872;-76
2024/01/25 00:37:32;;;;;;;6.70;1.40;;;;;;;10.64;83.01;100638.44;335837;28;12808;-76
2024/01/25 00:37:44;;;;;;;7.22;1.48;;;;;;;10.62;82.62;100640.22;335404;28;5562;-76
2024/01/25 00:37:57;;;;;;;3.40;1.30;;;;;;;10.55;82.63;100644.66;335819;28;5394;-76
2024/01/25 00:38:09;;;;;;;3.20;1.20;;;;;;;10.54;83.19;100634.28;334129;28;17937;-76
2024/01/25 00:38:22;;;;;;;5.38;1.30;;;;;;;10.54;82.81;100636.88;332973;28;4644;-76
2024/01/25 00:38:34;;;;;;;7.88;1.42;;;;;;;10.55;83.52;100634.25;333497;28;18548;-76
2024/01/25 00:38:47;;;;;;;6.50;1.65;;;;;;;10.51;83.51;100636.94;336344;28;5174;-76
2024/01/25 00:38:59;;;;;;;5.13;1.80;;;;;;;10.51;83.66;100636.94;335784;28;18081;-76
2024/01/25 00:39:11;;;;;;;3.85;1.80;;;;;;;10.51;83.05;100637.81;337264;28;5595;-77
2024/01/25 00:39:23;;;;;;;3.00;1.38;;;;;;;10.50;83.34;100624.81;333791;28;17868;-76
2024/01/25 00:39:36;;;;;;;3.08;1.17;;;;;;;10.63;83.34;100635.91;336693;28;4526;-76
2024/01/25 00:39:49;;;;;;;3.60;1.10;;;;;;;10.66;82.90;100631.47;336492;28;4916;-76
2024/01/25 00:40:02;;;;;;;5.53;1.20;;;;;;;10.59;83.27;100635.94;331910;28;18173;-76
2024/01/25 00:40:14;;;;;;;4.70;1.10;;;;;;;10.59;83.36;100628.13;336964;28;16181;-76
2024/01/25 00:40:27;;;;;;;4.07;1.10;;;;;;;10.56;83.41;100629.91;337854;28;5358;-76
2024/01/25 00:40:39;;;;;;;3.80;1.33;;;;;;;10.54;83.07;100631.69;334233;28;13051;-76
2024/01/25 00:40:52;;;;;;;3.40;1.23;;;;;;;10.48;83.35;100632.63;337409;28;4555;-76
2024/01/25 00:41:08;;;;;;;9.52;1.02;;;;;;;10.48;83.20;100631.78;334818;28;13113;-76
2024/01/25 00:41:20;;;;;;;10.20;1.30;;;;;;;10.43;83.45;100633.63;334411;28;17884;-76
2024/01/25 00:41:33;;;;;;;3.95;1.13;;;;;;;10.42;83.65;100624.09;331177;28;4821;-76
2024/01/25 00:41:50;;;;;;;4.90;1.10;;;;;;;10.49;83.77;100623.13;332230;29;12746;-77
2024/01/25 00:42:06;;;;;;;8.07;1.20;;;;;;;10.49;83.50;100625.72;331675;28;17739;-76
2024/01/25 00:42:22;;;;;;;6.53;1.17;;;;;;;10.46;83.51;100618.81;332319;29;18247;-76
2024/01/25 00:42:48;;;;;;;3.67;0.90;;;;;;;10.49;83.50;100623.13;331801;29;17971;-76
2024/01/25 00:43:01;;;;;;;3.20;0.95;;;;;;;10.54;83.61;100631.69;333438;28;17246;-76
2024/01/25 00:43:14;;;;;;;3.58;1.00;;;;;;;10.48;83.47;100621.38;335147;28;4662;-76
2024/01/25 00:43:29;;;;;;;4.47;1.00;;;;;;;10.50;83.75;100614.41;333764;28;13022;-76
2024/01/25 00:43:41;;;;;;;4.45;0.95;;;;;;;10.57;82.98;100627.31;334514;28;16611;-76
2024/01/25 00:43:53;;;;;;;2.78;0.85;;;;;;;10.59;83.12;100628.13;337206;28;4522;-76
2024/01/25 00:44:06;;;;;;;3.03;1.05;;;;;;;10.64;83.17;100622.84;335122;28;17478;-76
2024/01/25 00:44:18;;;;;;;4.25;1.35;;;;;;;10.65;82.98;100619.38;338347;28;4932;-76
2024/01/25 00:44:31;;;;;;;5.43;1.35;;;;;;;10.62;82.93;100624.59;333847;28;4700;-76
2024/01/25 00:44:43;;;;;;;4.53;1.10;;;;;;;10.68;82.92;100624.50;334911;28;18039;-76
2024/01/25 00:44:55;;;;;;;3.75;0.90;;;;;;;10.70;82.63;100612.34;339758;28;4530;-76
2024/01/25 00:45:08;;;;;;;3.15;1.00;;;;;;;10.72;82.58;100623.56;332886;28;19079;-76
2024/01/25 00:45:21;;;;;;;3.40;1.02;;;;;;;10.54;82.56;100623.88;337183;28;4652;-76
2024/01/25 00:45:33;;;;;;;4.57;1.17;;;;;;;10.60;82.85;100618.56;334658;28;18777;-76
2024/01/25 00:45:46;;;;;;;5.72;1.15;;;;;;;10.59;82.71;100622.06;335078;28;12329;-76
2024/01/25 00:45:58;;;;;;;6.78;1.50;;;;;;;10.59;83.01;100628.13;333770;28;17407;-76
2024/01/25 00:46:11;;;;;;;5.78;1.60;;;;;;;10.58;83.21;100625.53;336710;28;4565;-76
2024/01/25 00:46:23;;;;;;;4.55;1.40;;;;;;;10.53;83.13;100624.78;336110;28;18032;-76
2024/01/25 00:46:35;;;;;;;3.13;0.90;;;;;;;10.56;83.47;100625.59;338798;28;4710;-76
2024/01/25 00:46:48;;;;;;;3.42;0.75;;;;;;;10.55;83.44;100621.28;336733;28;18202;-77
2024/01/25 00:47:00;;;;;;;8.38;1.15;;;;;;;10.45;83.58;100626.66;339141;28;4583;-77
2024/01/25 00:47:13;;;;;;;7.88;1.10;;;;;;;10.43;83.87;100631.03;334871;28;18019;-76
2024/01/25 00:47:25;;;;;;;5.00;1.00;;;;;;;10.46;83.92;100628.34;337104;28;6728;-76
2024/01/25 00:47:38;;;;;;;4.63;1.00;;;;;;;10.44;83.44;100624.94;335316;28;10114;-76
2024/01/25 00:47:51;;;;;;;6.05;0.82;;;;;;;10.47;83.63;100624.88;339296;28;5710;-76
2024/01/25 00:48:03;;;;;;;7.50;1.33;;;;;;;10.43;83.72;100629.28;336440;28;18038;-76
2024/01/25 00:48:16;;;;;;;6.75;1.52;;;;;;;10.45;83.65;100626.66;337556;28;4735;-76
2024/01/25 00:48:28;;;;;;;7.47;1.45;;;;;;;10.47;83.73;100630.09;334959;28;18599;-76
2024/01/25 00:48:42;;;;;;;6.20;0.95;;;;;;;10.47;83.66;100614.50;336972;28;5096;-77
2024/01/25 00:48:55;;;;;;;3.67;0.90;;;;;;;10.47;83.88;100624.88;336259;28;17745;-76
2024/01/25 00:49:07;;;;;;;4.63;1.08;;;;;;;10.50;83.28;100630.03;331749;28;18429;-76
2024/01/25 00:49:20;;;;;;;4.85;1.30;;;;;;;10.52;83.45;100618.75;338747;28;4597;-76
2024/01/25 00:49:33;;;;;;;2.75;1.10;;;;;;;10.51;83.80;100621.34;335580;28;17367;-76
2024/01/25 00:49:45;;;;;;;2.17;0.98;;;;;;;10.49;83.86;100621.38;338558;28;5282;-76
2024/01/25 00:49:58;;;;;;;3.10;1.00;;;;;;;10.49;83.50;100625.72;335951;28;4558;-76
2024/01/25 00:50:11;;;;;;;3.50;1.10;;;;;;;10.55;83.52;100626.47;338954;28;5316;-76
2024/01/25 00:50:25;;;;;;;4.40;1.17;;;;;;;10.54;83.48;100627.38;331452;28;13663;-76
2024/01/25 00:50:38;;;;;;;5.57;1.27;;;;;;;10.51;83.92;100629.16;336891;28;4771;-76
2024/01/25 00:50:50;;;;;;;4.55;1.17;;;;;;;10.50;84.06;100624.81;340161;28;5255;-76
2024/01/25 00:51:07;;;;;;;4.68;1.05;;;;;;;10.44;83.60;100625.78;338636;28;5051;-77
2024/01/25 00:51:23;;;;;;;6.72;1.15;;;;;;;10.42;84.11;100621.50;334259;28;15684;-76
2024/01/25 00:51:36;;;;;;;6.18;0.98;;;;;;;10.39;84.01;100623.25;334164;28;17703;-76
2024/01/25 00:51:48;;;;;;;6.15;0.80;;;;;;;10.37;84.46;100622.44;333230;28;4785;-76
2024/01/25 00:52:03;;;;;;;4.78;0.75;;;;;;;10.37;84.30;100619.81;337054;28;4674;-76
2024/01/25 00:52:15;;;;;;;5.88;1.20;;;;;;;10.44;84.08;100617.13;329399;28;16800;-76
2024/01/25 00:52:28;;;;;;;6.95;1.45;;;;;;;10.43;84.32;100628.44;333668;28;13724;-76
2024/01/25 00:52:40;;;;;;;4.43;1.30;;;;;;;10.49;84.17;100612.72;336532;28;4513;-76
2024/01/25 00:52:53;;;;;;;2.75;1.08;;;;;;;10.48;84.17;100626.59;336260;29;4625;-76
2024/01/25 00:53:06;;;;;;;4.28;1.30;;;;;;;10.55;83.73;100623.03;334395;28;18148;-76
2024/01/25 00:53:18;;;;;;;4.03;1.15;;;;;;;10.51;83.76;100618.75;332866;28;4735;-76
2024/01/25 00:53:32;;;;;;;5.72;1.25;;;;;;;10.56;83.72;100624.72;335273;28;16336;-76
2024/01/25 00:53:45;;;;;;;5.63;1.20;;;;;;;10.61;83.36;100627.25;334050;28;4614;-77
2024/01/25 00:53:57;;;;;;;3.92;0.95;;;;;;;10.63;83.26;100613.34;337593;28;5091;-76
2024/01/25 00:54:10;;;;;;;3.05;0.90;;;;;;;10.66;82.71;100626.28;334694;28;5421;-76
2024/01/25 00:54:22;;;;;;;4.25;0.93;;;;;;;10.67;83.13;100632.34;336482;28;5146;-76
2024/01/25 00:54:34;;;;;;;5.35;1.10;;;;;;;10.58;82.65;100631.63;333378;28;12882;-76
2024/01/25 00:54:46;;;;;;;5.22;1.17;;;;;;;10.66;82.61;100626.28;335391;28;16930;-76
2024/01/25 00:54:59;;;;;;;4.28;1.08;;;;;;;10.69;82.56;100634.03;336396;28;12039;-76
2024/01/25 00:55:12;;;;;;;7.97;1.17;;;;;;;10.67;82.84;100630.59;335001;28;17257;-76
2024/01/25 00:55:24;;;;;;;8.27;1.50;;;;;;;10.66;82.79;100641.03;334644;28;12344;-76
2024/01/25 00:55:37;;;;;;;5.03;1.55;;;;;;;10.65;82.27;100634.97;337568;28;5273;-76
2024/01/25 00:55:49;;;;;;;2.45;1.08;;;;;;;10.64;82.89;100628.03;334852;28;6616;-76
2024/01/25 00:56:02;;;;;;;4.50;1.13;;;;;;;10.68;82.29;100624.50;337844;28;4990;-76
2024/01/25 00:56:14;;;;;;;6.35;1.20;;;;;;;10.66;82.80;100626.28;331720;28;4703;-76
2024/01/25 00:56:27;;;;;;;6.93;1.25;;;;;;;10.64;82.60;100635.84;333138;28;18279;-76
2024/01/25 00:56:39;;;;;;;7.05;1.40;;;;;;;10.56;82.63;100629.91;336918;28;5612;-76
2024/01/25 00:56:52;;;;;;;5.65;1.30;;;;;;;10.54;83.27;100631.69;334042;28;18182;-76
2024/01/25 00:57:05;;;;;;;6.50;1.70;;;;;;;10.49;82.96;100633.53;337397;28;4690;-76
2024/01/25 00:57:17;;;;;;;8.27;1.83;;;;;;;10.44;83.49;100637.91;333380;28;17927;-76
2024/01/25 00:57:30;;;;;;;7.35;1.40;;;;;;;10.46;83.53;100633.56;338011;28;5302;-77
2024/01/25 00:57:43;;;;;;;6.10;1.20;;;;;;;10.48;83.54;100632.63;336092;28;18629;-76
2024/01/25 00:57:56;;;;;;;4.50;0.90;;;;;;;10.51;83.78;100632.59;335097;28;17968;-76
2024/01/25 00:58:08;;;;;;;3.10;0.80;;;;;;;10.54;83.29;100622.16;339305;28;4729;-76
2024/01/25 00:58:21;;;;;;;3.72;0.85;;;;;;;10.56;83.04;100635.13;335072;28;12208;-76
2024/01/25 00:58:33;;;;;;;3.08;0.90;;;;;;;10.62;83.17;100640.22;337747;28;4527;-76
2024/01/25 00:58:46;;;;;;;4.45;1.02;;;;;;;10.59;82.88;100630.72;336519;28;4522;-76
2024/01/25 00:58:58;;;;;;;5.82;0.98;;;;;;;10.63;82.77;100630.69;339016;28;4802;-76
2024/01/25 00:59:11;;;;;;;3.80;0.80;;;;;;;10.61;82.87;100640.25;334411;28;5285;-76
2024/01/25 00:59:23;;;;;;;4.53;0.90;;;;;;;10.60;82.87;100636.78;335512;28;15093;-76
2024/01/25 00:59:35;;;;;;;5.18;0.98;;;;;;;10.57;82.83;100634.25;337094;28;5697;-76